Turbat Weather



Turbat's Current Weather

Temprature 25.75o few clouds

few clouds

Rain: 0 %

Min Temprature25.75o
Max Temprature25.75o
Humidity78
Wind Speed2.54 m/h
Sun Rise06:24:00
Sun Set19:17:33
Current Time: 23-Aug-2019 05:19:48
Lat/Lon: 26, 63.05




Turbat's Geo Location



Turbat's Weather Forecast

Time Overall Temp Min Temp Max Temp Humidity Wind Speed Rain
23-Aug-2019 (Fri)
08:00:00 broken clouds 26.320 26.317 26.320 74 1.71 m/h 0 %
11:00:00 scattered clouds 30.650 30.650 30.650 54 2.76 m/h 0 %
14:00:00 clear sky 35.230 35.230 35.231 38 4.08 m/h 0 %
17:00:00 clear sky 36.610 36.610 36.611 34 7.19 m/h 0 %
20:00:00 clear sky 29.150 29.150 29.150 62 6.82 m/h 0 %
23:00:00 clear sky 28.842 28.842 28.842 61 5.09 m/h 0 %
24-Aug-2019 (Sat)
02:00:00 few clouds 26.731 26.731 26.731 70 2.81 m/h 0 %
05:00:00 few clouds 25.955 25.955 25.955 76 2.58 m/h 0 %
08:00:00 scattered clouds 26.287 26.287 26.287 76 2.44 m/h 0 %
11:00:00 few clouds 30.669 30.669 30.669 57 2.86 m/h 0 %
14:00:00 clear sky 36.169 36.169 36.169 35 3.68 m/h 0 %
17:00:00 clear sky 36.523 36.523 36.523 37 8.12 m/h 0 %
20:00:00 clear sky 30.050 30.050 30.050 62 5.58 m/h 0 %
23:00:00 clear sky 29.169 29.169 29.169 66 4.96 m/h 0 %
25-Aug-2019 (Sun)
02:00:00 clear sky 27.731 27.731 27.731 74 2.32 m/h 0 %
05:00:00 few clouds 26.657 26.657 26.657 81 2.85 m/h 0 %
08:00:00 scattered clouds 27.014 27.014 27.014 78 1.02 m/h 0 %
11:00:00 scattered clouds 34.016 34.016 34.016 37 1.49 m/h 0 %
14:00:00 clear sky 40.450 40.450 40.450 18 4.1 m/h 0 %
17:00:00 clear sky 41.950 41.950 41.950 12 5.47 m/h 0 %
20:00:00 clear sky 31.881 31.881 31.881 54 5.06 m/h 0 %
23:00:00 clear sky 28.711 28.711 28.711 70 4.04 m/h 0 %
26-Aug-2019 (Mon)
02:00:00 clear sky 27.265 27.265 27.265 76 4.56 m/h 0 %
05:00:00 clear sky 27.050 27.050 27.050 73 2.08 m/h 0 %
08:00:00 clear sky 27.367 27.367 27.367 73 1.05 m/h 0 %
11:00:00 clear sky 32.772 32.772 32.772 47 1.14 m/h 0 %
14:00:00 clear sky 38.784 38.784 38.784 26 4.7 m/h 0 %
17:00:00 clear sky 37.220 37.220 37.220 35 9.36 m/h 0 %
20:00:00 scattered clouds 31.372 31.372 31.372 55 4.73 m/h 0 %
23:00:00 broken clouds 28.614 28.614 28.614 66 3.48 m/h 0 %
27-Aug-2019 (Tue)
02:00:00 clear sky 27.716 27.716 27.716 68 2.19 m/h 0 %
05:00:00 clear sky 27.450 27.450 27.450 69 0.25 m/h 0 %
08:00:00 clear sky 28.235 28.235 28.235 65 0.89 m/h 0 %
11:00:00 clear sky 34.336 34.336 34.336 36 3.4 m/h 0 %
14:00:00 clear sky 39.636 39.636 39.636 19 4.67 m/h 0 %
17:00:00 scattered clouds 38.365 38.365 38.365 30 7.39 m/h 0 %
20:00:00 overcast clouds 30.950 30.950 30.950 57 4.57 m/h 0 %
23:00:00 overcast clouds 29.950 29.950 29.950 60 2.22 m/h 0 %
28-Aug-2019 (Wed)
02:00:00 clear sky 29.357 29.357 29.357 60 2.41 m/h 0 %
05:00:00 clear sky 27.772 27.772 27.772 65 1.32 m/h 0 %

Famous Cities (61)